sensor_id;sensor_type;location;lat;lon;timestamp;pressure;altitude;pressure_sealevel;temperature;humidity
72066;BME280;59939;52.516;13.420;2022-09-13T00:02:45;100264.88;;;16.05;67.94
72066;BME280;59939;52.516;13.420;2022-09-13T00:05:49;100253.81;;;16.05;67.80
72066;BME280;59939;52.516;13.420;2022-09-13T00:08:53;100258.88;;;16.03;68.24
72066;BME280;59939;52.516;13.420;2022-09-13T00:11:57;100255.69;;;16.17;66.89
72066;BME280;59939;52.516;13.420;2022-09-13T00:15:00;100260.50;;;16.20;67.64
72066;BME280;59939;52.516;13.420;2022-09-13T00:18:04;100246.22;;;16.02;67.60
72066;BME280;59939;52.516;13.420;2022-09-13T00:21:10;100235.59;;;16.04;67.63
72066;BME280;59939;52.516;13.420;2022-09-13T00:24:15;100235.16;;;16.02;67.52
72066;BME280;59939;52.516;13.420;2022-09-13T00:27:18;100227.47;;;15.95;67.64
72066;BME280;59939;52.516;13.420;2022-09-13T00:30:22;100233.28;;;16.06;67.55
72066;BME280;59939;52.516;13.420;2022-09-13T00:33:26;100224.88;;;16.34;66.03
72066;BME280;59939;52.516;13.420;2022-09-13T00:36:30;100223.69;;;15.88;68.02
72066;BME280;59939;52.516;13.420;2022-09-13T00:39:34;100207.81;;;15.85;68.27
72066;BME280;59939;52.516;13.420;2022-09-13T00:42:38;100186.66;;;15.77;68.50
72066;BME280;59939;52.516;13.420;2022-09-13T00:45:42;100193.44;;;15.79;68.05
72066;BME280;59939;52.516;13.420;2022-09-13T00:48:48;100193.97;;;15.69;68.38
72066;BME280;59939;52.516;13.420;2022-09-13T00:51:57;100179.69;;;15.83;68.02
72066;BME280;59939;52.516;13.420;2022-09-13T00:55:07;100177.19;;;15.78;67.75
72066;BME280;59939;52.516;13.420;2022-09-13T00:58:20;100171.38;;;15.67;68.52
72066;BME280;59939;52.516;13.420;2022-09-13T01:01:30;100172.09;;;15.64;68.65
72066;BME280;59939;52.516;13.420;2022-09-13T01:04:36;100173.53;;;15.58;68.88
72066;BME280;59939;52.516;13.420;2022-09-13T01:07:40;100167.75;;;15.79;67.87
72066;BME280;59939;52.516;13.420;2022-09-13T01:10:45;100166.03;;;15.74;68.31
72066;BME280;59939;52.516;13.420;2022-09-13T01:13:51;100166.13;;;15.78;67.96
72066;BME280;59939;52.516;13.420;2022-09-13T01:16:55;100159.88;;;15.81;67.79
72066;BME280;59939;52.516;13.420;2022-09-13T01:20:00;100155.50;;;15.80;68.03
72066;BME280;59939;52.516;13.420;2022-09-13T01:27:01;100142.94;;;15.66;69.22
72066;BME280;59939;52.516;13.420;2022-09-13T01:30:13;100136.78;;;15.29;69.85
72066;BME280;59939;52.516;13.420;2022-09-13T01:33:36;100153.19;;;15.66;69.06
72066;BME280;59939;52.516;13.420;2022-09-13T01:37:27;100156.28;;;15.49;69.48
72066;BME280;59939;52.516;13.420;2022-09-13T01:47:42;100143.56;;;15.32;70.25
72066;BME280;59939;52.516;13.420;2022-09-13T01:51:11;100128.38;;;15.54;70.25
72066;BME280;59939;52.516;13.420;2022-09-13T01:57:40;100128.41;;;15.26;70.70
72066;BME280;59939;52.516;13.420;2022-09-13T02:00:53;100133.13;;;14.97;72.29
72066;BME280;59939;52.516;13.420;2022-09-13T02:04:06;100121.78;;;15.15;71.42
72066;BME280;59939;52.516;13.420;2022-09-13T02:07:20;100118.25;;;15.30;70.58
72066;BME280;59939;52.516;13.420;2022-09-13T02:10:34;100110.88;;;15.06;71.59
72066;BME280;59939;52.516;13.420;2022-09-13T02:13:52;100115.03;;;15.28;70.47
72066;BME280;59939;52.516;13.420;2022-09-13T02:17:03;100111.91;;;15.29;70.89
72066;BME280;59939;52.516;13.420;2022-09-13T02:20:27;100097.66;;;15.27;70.62
72066;BME280;59939;52.516;13.420;2022-09-13T02:23:42;100102.19;;;15.20;70.43
72066;BME280;59939;52.516;13.420;2022-09-13T02:26:49;100097.09;;;15.22;70.67
72066;BME280;59939;52.516;13.420;2022-09-13T02:30:08;100102.63;;;15.22;71.03
72066;BME280;59939;52.516;13.420;2022-09-13T02:33:16;100095.94;;;15.23;70.60
72066;BME280;59939;52.516;13.420;2022-09-13T02:36:24;100075.25;;;15.17;70.51
72066;BME280;59939;52.516;13.420;2022-09-13T02:39:31;100076.63;;;15.39;70.36
72066;BME280;59939;52.516;13.420;2022-09-13T02:42:44;100069.22;;;15.43;69.87
72066;BME280;59939;52.516;13.420;2022-09-13T02:46:09;100065.88;;;15.06;71.62
72066;BME280;59939;52.516;13.420;2022-09-13T02:53:25;100066.84;;;14.97;71.00
72066;BME280;59939;52.516;13.420;2022-09-13T02:56:42;100065.31;;;15.00;71.87
72066;BME280;59939;52.516;13.420;2022-09-13T02:59:48;100059.44;;;15.45;69.88
72066;BME280;59939;52.516;13.420;2022-09-13T03:02:53;100059.25;;;14.94;72.00
72066;BME280;59939;52.516;13.420;2022-09-13T03:05:59;100051.34;;;15.09;71.20
72066;BME280;59939;52.516;13.420;2022-09-13T03:09:04;100038.38;;;14.81;72.08
72066;BME280;59939;52.516;13.420;2022-09-13T03:12:29;100036.50;;;14.85;71.15
72066;BME280;59939;52.516;13.420;2022-09-13T03:16:05;100020.28;;;15.27;69.54
72066;BME280;59939;52.516;13.420;2022-09-13T03:19:34;100019.94;;;14.85;71.42
72066;BME280;59939;52.516;13.420;2022-09-13T03:22:55;100022.09;;;14.64;72.15
72066;BME280;59939;52.516;13.420;2022-09-13T03:29:51;100009.88;;;14.93;71.34
72066;BME280;59939;52.516;13.420;2022-09-13T03:33:21;99994.53;;;14.80;71.90
72066;BME280;59939;52.516;13.420;2022-09-13T03:36:36;100008.41;;;14.67;72.35
72066;BME280;59939;52.516;13.420;2022-09-13T03:39:51;100007.56;;;14.95;71.03
72066;BME280;59939;52.516;13.420;2022-09-13T03:43:17;100008.88;;;14.85;71.54
72066;BME280;59939;52.516;13.420;2022-09-13T03:46:34;100010.97;;;15.04;70.60
72066;BME280;59939;52.516;13.420;2022-09-13T03:49:40;100011.97;;;15.12;69.72
72066;BME280;59939;52.516;13.420;2022-09-13T03:52:44;100006.94;;;14.86;71.16
72066;BME280;59939;52.516;13.420;2022-09-13T03:55:50;100003.22;;;15.10;70.38
72066;BME280;59939;52.516;13.420;2022-09-13T03:58:54;100000.78;;;14.92;71.19
72066;BME280;59939;52.516;13.420;2022-09-13T04:01:58;100000.00;;;14.64;72.22
72066;BME280;59939;52.516;13.420;2022-09-13T04:05:03;99992.41;;;14.89;71.24
72066;BME280;59939;52.516;13.420;2022-09-13T04:08:07;99984.50;;;14.59;72.03
72066;BME280;59939;52.516;13.420;2022-09-13T04:11:11;99973.91;;;14.61;72.65
72066;BME280;59939;52.516;13.420;2022-09-13T04:14:15;99976.78;;;14.65;72.35
72066;BME280;59939;52.516;13.420;2022-09-13T04:17:19;99984.09;;;14.73;71.88
72066;BME280;59939;52.516;13.420;2022-09-13T04:20:23;99976.31;;;14.63;72.04
72066;BME280;59939;52.516;13.420;2022-09-13T04:23:28;99970.88;;;15.10;70.87
72066;BME280;59939;52.516;13.420;2022-09-13T04:26:32;99970.75;;;14.47;73.06
72066;BME280;59939;52.516;13.420;2022-09-13T04:29:38;99964.81;;;15.05;70.94
72066;BME280;59939;52.516;13.420;2022-09-13T04:32:42;99963.59;;;14.74;72.04
72066;BME280;59939;52.516;13.420;2022-09-13T04:35:46;99953.66;;;14.85;71.83
72066;BME280;59939;52.516;13.420;2022-09-13T04:38:50;99947.78;;;14.87;71.75
72066;BME280;59939;52.516;13.420;2022-09-13T04:41:54;99949.81;;;14.74;72.16
72066;BME280;59939;52.516;13.420;2022-09-13T04:44:58;99947.78;;;15.02;71.21
72066;BME280;59939;52.516;13.420;2022-09-13T04:48:05;99940.38;;;14.91;71.71
72066;BME280;59939;52.516;13.420;2022-09-13T04:51:09;99945.00;;;14.87;71.40
72066;BME280;59939;52.516;13.420;2022-09-13T04:54:13;99935.28;;;14.77;72.39
72066;BME280;59939;52.516;13.420;2022-09-13T04:57:20;99931.91;;;15.31;69.80
72066;BME280;59939;52.516;13.420;2022-09-13T05:00:31;99938.88;;;15.41;68.91
72066;BME280;59939;52.516;13.420;2022-09-13T05:03:37;99933.63;;;15.36;69.04
72066;BME280;59939;52.516;13.420;2022-09-13T05:06:43;99936.84;;;15.73;67.71
72066;BME280;59939;52.516;13.420;2022-09-13T05:10:15;99925.25;;;15.67;68.02
72066;BME280;59939;52.516;13.420;2022-09-13T05:13:22;99915.59;;;15.42;68.92
72066;BME280;59939;52.516;13.420;2022-09-13T05:16:29;99919.84;;;15.55;68.31
72066;BME280;59939;52.516;13.420;2022-09-13T05:19:51;99930.50;;;15.21;69.84
72066;BME280;59939;52.516;13.420;2022-09-13T05:23:08;99919.88;;;15.39;68.89
72066;BME280;59939;52.516;13.420;2022-09-13T05:26:22;99902.38;;;15.51;68.23
72066;BME280;59939;52.516;13.420;2022-09-13T05:29:26;99893.00;;;15.55;68.75
72066;BME280;59939;52.516;13.420;2022-09-13T05:32:44;99899.72;;;15.39;69.31
72066;BME280;59939;52.516;13.420;2022-09-13T05:35:49;99891.41;;;15.54;68.64
72066;BME280;59939;52.516;13.420;2022-09-13T05:38:53;99906.94;;;15.43;69.53
72066;BME280;59939;52.516;13.420;2022-09-13T05:42:04;99905.59;;;15.53;69.16
72066;BME280;59939;52.516;13.420;2022-09-13T05:45:09;99896.59;;;15.75;68.29
72066;BME280;59939;52.516;13.420;2022-09-13T05:48:13;99895.22;;;15.15;70.65
72066;BME280;59939;52.516;13.420;2022-09-13T05:51:25;99902.84;;;15.37;70.15
72066;BME280;59939;52.516;13.420;2022-09-13T05:54:29;99920.53;;;15.68;68.86
72066;BME280;59939;52.516;13.420;2022-09-13T05:57:37;99920.50;;;15.83;68.84
72066;BME280;59939;52.516;13.420;2022-09-13T06:00:40;99917.94;;;15.75;69.30
72066;BME280;59939;52.516;13.420;2022-09-13T06:03:48;99922.25;;;15.56;72.15
72066;BME280;59939;52.516;13.420;2022-09-13T06:06:52;99931.28;;;15.53;72.17
72066;BME280;59939;52.516;13.420;2022-09-13T06:09:59;99932.75;;;15.66;71.21
72066;BME280;59939;52.516;13.420;2022-09-13T06:13:03;99927.56;;;16.00;71.46
72066;BME280;59939;52.516;13.420;2022-09-13T06:16:14;99936.69;;;15.65;72.78
72066;BME280;59939;52.516;13.420;2022-09-13T06:19:21;99946.31;;;15.72;74.10
72066;BME280;59939;52.516;13.420;2022-09-13T06:22:25;99928.75;;;16.18;71.88
72066;BME280;59939;52.516;13.420;2022-09-13T06:25:35;99936.88;;;15.92;72.45
72066;BME280;59939;52.516;13.420;2022-09-13T06:28:40;99936.25;;;15.63;73.79
72066;BME280;59939;52.516;13.420;2022-09-13T06:31:51;99942.13;;;15.97;73.56
72066;BME280;59939;52.516;13.420;2022-09-13T06:34:55;99944.03;;;15.58;75.17
72066;BME280;59939;52.516;13.420;2022-09-13T06:37:59;99941.34;;;15.61;74.98
72066;BME280;59939;52.516;13.420;2022-09-13T06:41:13;99944.91;;;15.97;73.17
72066;BME280;59939;52.516;13.420;2022-09-13T06:44:17;99951.59;;;15.96;73.11
72066;BME280;59939;52.516;13.420;2022-09-13T06:47:24;99943.06;;;15.85;74.23
72066;BME280;59939;52.516;13.420;2022-09-13T06:50:28;99930.56;;;16.30;71.89
72066;BME280;59939;52.516;13.420;2022-09-13T06:53:34;99925.88;;;16.95;69.90
72066;BME280;59939;52.516;13.420;2022-09-13T06:56:38;99920.41;;;16.76;70.75
72066;BME280;59939;52.516;13.420;2022-09-13T06:59:42;99923.47;;;16.52;71.85
72066;BME280;59939;52.516;13.420;2022-09-13T07:02:50;99907.88;;;16.63;71.87
72066;BME280;59939;52.516;13.420;2022-09-13T07:05:56;99891.56;;;16.58;72.68
72066;BME280;59939;52.516;13.420;2022-09-13T07:09:03;99909.56;;;16.48;72.20
72066;BME280;59939;52.516;13.420;2022-09-13T07:12:07;99902.97;;;16.99;70.80
72066;BME280;59939;52.516;13.420;2022-09-13T07:15:14;99893.31;;;16.66;72.88
72066;BME280;59939;52.516;13.420;2022-09-13T07:18:20;99881.84;;;16.25;74.45
72066;BME280;59939;52.516;13.420;2022-09-13T07:21:25;99879.16;;;15.90;75.23
72066;BME280;59939;52.516;13.420;2022-09-13T07:24:29;99885.34;;;16.03;75.25
72066;BME280;59939;52.516;13.420;2022-09-13T07:27:33;99885.97;;;16.35;74.37
72066;BME280;59939;52.516;13.420;2022-09-13T07:30:37;99886.38;;;16.56;73.60
72066;BME280;59939;52.516;13.420;2022-09-13T07:33:44;99886.44;;;16.60;73.44
72066;BME280;59939;52.516;13.420;2022-09-13T07:36:49;99878.38;;;16.51;74.39
72066;BME280;59939;52.516;13.420;2022-09-13T07:39:53;99899.44;;;16.56;73.84
72066;BME280;59939;52.516;13.420;2022-09-13T07:42:57;99886.69;;;17.20;71.21
72066;BME280;59939;52.516;13.420;2022-09-13T07:46:06;99888.44;;;16.40;74.71
72066;BME280;59939;52.516;13.420;2022-09-13T07:49:15;99888.16;;;17.14;71.46
72066;BME280;59939;52.516;13.420;2022-09-13T07:52:19;99881.28;;;17.04;72.30
72066;BME280;59939;52.516;13.420;2022-09-13T07:55:24;99880.63;;;17.37;71.81
72066;BME280;59939;52.516;13.420;2022-09-13T07:58:36;99886.50;;;16.63;74.16
72066;BME280;59939;52.516;13.420;2022-09-13T08:01:43;99886.31;;;16.53;74.82
72066;BME280;59939;52.516;13.420;2022-09-13T08:04:56;99874.56;;;17.05;74.15
72066;BME280;59939;52.516;13.420;2022-09-13T08:08:00;99870.81;;;17.70;68.99
72066;BME280;59939;52.516;13.420;2022-09-13T08:11:05;99869.56;;;17.14;71.00
72066;BME280;59939;52.516;13.420;2022-09-13T08:14:12;99872.19;;;17.30;72.18
72066;BME280;59939;52.516;13.420;2022-09-13T08:17:16;99880.34;;;17.19;72.19
72066;BME280;59939;52.516;13.420;2022-09-13T08:20:21;99877.53;;;17.99;69.98
72066;BME280;59939;52.516;13.420;2022-09-13T08:23:26;99872.03;;;18.76;65.80
72066;BME280;59939;52.516;13.420;2022-09-13T08:26:32;99868.63;;;18.16;68.22
72066;BME280;59939;52.516;13.420;2022-09-13T08:29:44;99877.88;;;19.08;65.86
72066;BME280;59939;52.516;13.420;2022-09-13T08:32:51;99880.66;;;19.08;64.86
72066;BME280;59939;52.516;13.420;2022-09-13T08:35:55;99886.22;;;18.64;67.77
72066;BME280;59939;52.516;13.420;2022-09-13T08:39:00;99898.16;;;18.35;68.07
72066;BME280;59939;52.516;13.420;2022-09-13T08:42:35;99888.38;;;18.48;67.88
72066;BME280;59939;52.516;13.420;2022-09-13T08:45:58;99885.94;;;17.76;69.15
72066;BME280;59939;52.516;13.420;2022-09-13T08:49:11;99897.06;;;18.43;66.93
72066;BME280;59939;52.516;13.420;2022-09-13T08:52:32;99885.34;;;18.60;67.36
72066;BME280;59939;52.516;13.420;2022-09-13T08:56:01;99896.22;;;18.72;64.71
72066;BME280;59939;52.516;13.420;2022-09-13T08:59:31;99880.09;;;20.16;60.88
72066;BME280;59939;52.516;13.420;2022-09-13T09:06:29;99861.47;;;19.47;63.30
72066;BME280;59939;52.516;13.420;2022-09-13T09:10:23;99861.31;;;19.26;63.43
72066;BME280;59939;52.516;13.420;2022-09-13T09:13:05;99854.09;;;19.14;64.50
72066;BME280;59939;52.516;13.420;2022-09-13T09:19:52;99858.28;;;21.71;56.44
72066;BME280;59939;52.516;13.420;2022-09-13T09:23:00;99855.47;;;21.78;55.42
72066;BME280;59939;52.516;13.420;2022-09-13T09:26:28;99860.34;;;24.19;48.53
72066;BME280;59939;52.516;13.420;2022-09-13T09:29:35;99871.28;;;22.17;53.10
72066;BME280;59939;52.516;13.420;2022-09-13T09:32:50;99856.53;;;23.30;50.68
72066;BME280;59939;52.516;13.420;2022-09-13T09:36:29;99863.25;;;22.26;53.32
72066;BME280;59939;52.516;13.420;2022-09-13T09:39:37;99849.97;;;23.44;50.50
72066;BME280;59939;52.516;13.420;2022-09-13T09:42:50;99844.13;;;23.31;51.00
72066;BME280;59939;52.516;13.420;2022-09-13T09:45:55;99850.38;;;23.84;49.45
72066;BME280;59939;52.516;13.420;2022-09-13T09:49:31;99851.47;;;25.04;45.81
72066;BME280;59939;52.516;13.420;2022-09-13T09:53:00;99854.53;;;24.63;47.15
72066;BME280;59939;52.516;13.420;2022-09-13T09:56:27;99863.94;;;23.48;49.00
72066;BME280;59939;52.516;13.420;2022-09-13T09:59:33;99862.28;;;22.57;52.36
72066;BME280;59939;52.516;13.420;2022-09-13T10:02:42;99857.97;;;23.46;49.95
72066;BME280;59939;52.516;13.420;2022-09-13T10:05:47;99852.66;;;24.26;47.72
72066;BME280;59939;52.516;13.420;2022-09-13T10:12:06;99837.28;;;24.38;46.91
72066;BME280;59939;52.516;13.420;2022-09-13T10:15:19;99835.94;;;23.10;50.06
72066;BME280;59939;52.516;13.420;2022-09-13T10:18:27;99835.38;;;22.81;51.55
72066;BME280;59939;52.516;13.420;2022-09-13T10:22:11;99832.28;;;22.02;53.97
72066;BME280;59939;52.516;13.420;2022-09-13T10:25:21;99845.16;;;21.61;55.29
72066;BME280;59939;52.516;13.420;2022-09-13T10:28:35;99842.03;;;21.30;56.95
72066;BME280;59939;52.516;13.420;2022-09-13T10:31:44;99821.09;;;22.02;54.96
72066;BME280;59939;52.516;13.420;2022-09-13T10:34:50;99821.38;;;22.85;52.92
72066;BME280;59939;52.516;13.420;2022-09-13T10:37:55;99811.34;;;22.28;54.35
72066;BME280;59939;52.516;13.420;2022-09-13T10:41:05;99815.38;;;22.24;54.76
72066;BME280;59939;52.516;13.420;2022-09-13T10:47:45;99813.97;;;21.87;56.00
72066;BME280;59939;52.516;13.420;2022-09-13T10:57:36;99812.50;;;21.43;59.51
72066;BME280;59939;52.516;13.420;2022-09-13T11:04:31;99815.91;;;21.97;58.63
72066;BME280;59939;52.516;13.420;2022-09-13T11:12:16;99812.53;;;21.29;59.68
72066;BME280;59939;52.516;13.420;2022-09-13T11:15:32;99816.50;;;21.42;58.96
72066;BME280;59939;52.516;13.420;2022-09-13T11:19:11;99824.50;;;20.83;60.61
72066;BME280;59939;52.516;13.420;2022-09-13T11:22:35;99815.75;;;21.24;59.98
72066;BME280;59939;52.516;13.420;2022-09-13T11:29:28;99797.41;;;21.27;59.65
72066;BME280;59939;52.516;13.420;2022-09-13T11:40:02;99806.81;;;21.79;58.83
72066;BME280;59939;52.516;13.420;2022-09-13T11:43:26;99798.19;;;21.06;61.29
72066;BME280;59939;52.516;13.420;2022-09-13T11:46:42;99795.81;;;21.15;61.67
72066;BME280;59939;52.516;13.420;2022-09-13T11:50:24;99817.75;;;20.52;64.59
72066;BME280;59939;52.516;13.420;2022-09-13T11:57:29;99807.81;;;20.76;64.08
72066;BME280;59939;52.516;13.420;2022-09-13T12:00:40;99820.53;;;20.84;64.15
72066;BME280;59939;52.516;13.420;2022-09-13T12:07:02;99797.84;;;20.79;64.06
72066;BME280;59939;52.516;13.420;2022-09-13T12:10:23;99822.94;;;20.68;64.46
72066;BME280;59939;52.516;13.420;2022-09-13T12:13:30;99809.38;;;20.56;65.71
72066;BME280;59939;52.516;13.420;2022-09-13T12:16:41;99798.16;;;20.20;66.73
72066;BME280;59939;52.516;13.420;2022-09-13T12:19:51;99807.25;;;20.03;66.97
72066;BME280;59939;52.516;13.420;2022-09-13T12:23:17;99803.81;;;20.63;65.04
72066;BME280;59939;52.516;13.420;2022-09-13T12:27:06;99802.06;;;21.69;60.84
72066;BME280;59939;52.516;13.420;2022-09-13T12:30:21;99814.06;;;20.13;66.73
72066;BME280;59939;52.516;13.420;2022-09-13T12:33:28;99809.31;;;20.28;68.49
72066;BME280;59939;52.516;13.420;2022-09-13T12:36:54;99811.38;;;20.56;68.31
72066;BME280;59939;52.516;13.420;2022-09-13T12:40:14;99805.81;;;20.63;67.12
72066;BME280;59939;52.516;13.420;2022-09-13T12:47:06;99805.03;;;20.69;66.94
72066;BME280;59939;52.516;13.420;2022-09-13T12:50:36;99801.34;;;20.23;69.30
72066;BME280;59939;52.516;13.420;2022-09-13T13:00:27;99795.78;;;20.30;68.66
72066;BME280;59939;52.516;13.420;2022-09-13T13:03:40;99799.34;;;20.19;69.27
72066;BME280;59939;52.516;13.420;2022-09-13T13:06:55;99797.00;;;21.03;66.41
72066;BME280;59939;52.516;13.420;2022-09-13T13:10:01;99788.66;;;21.03;68.68
72066;BME280;59939;52.516;13.420;2022-09-13T13:13:15;99786.41;;;21.93;63.14
72066;BME280;59939;52.516;13.420;2022-09-13T13:16:35;99781.44;;;21.34;65.74
72066;BME280;59939;52.516;13.420;2022-09-13T13:19:41;99780.66;;;21.16;66.39
72066;BME280;59939;52.516;13.420;2022-09-13T13:22:48;99789.47;;;20.90;67.89
72066;BME280;59939;52.516;13.420;2022-09-13T13:29:31;99783.88;;;21.04;67.42
72066;BME280;59939;52.516;13.420;2022-09-13T13:33:05;99772.72;;;21.04;66.68
72066;BME280;59939;52.516;13.420;2022-09-13T13:36:28;99781.50;;;20.88;67.00
72066;BME280;59939;52.516;13.420;2022-09-13T13:39:44;99779.00;;;21.51;65.93
72066;BME280;59939;52.516;13.420;2022-09-13T13:43:28;99763.06;;;21.51;65.56
72066;BME280;59939;52.516;13.420;2022-09-13T13:46:35;99762.22;;;22.31;62.28
72066;BME280;59939;52.516;13.420;2022-09-13T13:59:37;99759.16;;;22.66;59.01
72066;BME280;59939;52.516;13.420;2022-09-13T14:06:15;99767.91;;;21.22;65.10
72066;BME280;59939;52.516;13.420;2022-09-13T14:20:20;99746.88;;;21.98;61.72
72066;BME280;59939;52.516;13.420;2022-09-13T14:23:30;99763.84;;;23.59;56.40
72066;BME280;59939;52.516;13.420;2022-09-13T14:26:45;99748.16;;;22.45;59.68
72066;BME280;59939;52.516;13.420;2022-09-13T14:30:04;99744.50;;;21.96;61.59
72066;BME280;59939;52.516;13.420;2022-09-13T14:33:23;99760.81;;;22.08;61.49
72066;BME280;59939;52.516;13.420;2022-09-13T14:36:27;99759.47;;;23.20;57.69
72066;BME280;59939;52.516;13.420;2022-09-13T14:39:32;99758.63;;;22.34;60.17
72066;BME280;59939;52.516;13.420;2022-09-13T14:42:41;99754.03;;;22.09;60.96
72066;BME280;59939;52.516;13.420;2022-09-13T14:45:51;99751.22;;;22.09;60.95
72066;BME280;59939;52.516;13.420;2022-09-13T14:49:00;99752.75;;;22.14;61.08
72066;BME280;59939;52.516;13.420;2022-09-13T14:52:08;99742.72;;;22.79;58.61
72066;BME280;59939;52.516;13.420;2022-09-13T14:55:44;99745.44;;;21.68;62.90
72066;BME280;59939;52.516;13.420;2022-09-13T14:59:01;99738.56;;;22.46;59.95
72066;BME280;59939;52.516;13.420;2022-09-13T15:02:31;99730.91;;;22.05;61.39
72066;BME280;59939;52.516;13.420;2022-09-13T15:05:40;99734.38;;;22.17;60.90
72066;BME280;59939;52.516;13.420;2022-09-13T15:08:46;99742.63;;;22.38;59.85
72066;BME280;59939;52.516;13.420;2022-09-13T15:18:32;99729.13;;;22.26;60.49
72066;BME280;59939;52.516;13.420;2022-09-13T15:21:39;99728.25;;;23.25;57.65
72066;BME280;59939;52.516;13.420;2022-09-13T15:25:00;99723.66;;;23.72;55.74
72066;BME280;59939;52.516;13.420;2022-09-13T15:28:04;99724.25;;;23.57;56.29
72066;BME280;59939;52.516;13.420;2022-09-13T15:31:10;99717.22;;;23.11;57.44
72066;BME280;59939;52.516;13.420;2022-09-13T15:41:37;99716.59;;;22.93;57.67
72066;BME280;59939;52.516;13.420;2022-09-13T15:44:41;99706.53;;;22.58;58.85
72066;BME280;59939;52.516;13.420;2022-09-13T15:47:47;99711.69;;;23.38;56.53
72066;BME280;59939;52.516;13.420;2022-09-13T15:51:09;99701.38;;;23.31;56.43
72066;BME280;59939;52.516;13.420;2022-09-13T15:54:15;99713.63;;;24.02;54.82
72066;BME280;59939;52.516;13.420;2022-09-13T15:57:22;99716.53;;;22.55;58.91
72066;BME280;59939;52.516;13.420;2022-09-13T16:00:27;99709.53;;;22.77;58.41
72066;BME280;59939;52.516;13.420;2022-09-13T16:03:31;99708.00;;;22.69;58.54
72066;BME280;59939;52.516;13.420;2022-09-13T16:06:35;99714.94;;;21.99;60.97
72066;BME280;59939;52.516;13.420;2022-09-13T16:09:39;99716.81;;;21.46;63.53
72066;BME280;59939;52.516;13.420;2022-09-13T16:12:44;99719.78;;;21.91;62.01
72066;BME280;59939;52.516;13.420;2022-09-13T16:15:49;99700.03;;;21.54;63.58
72066;BME280;59939;52.516;13.420;2022-09-13T16:18:55;99696.06;;;21.55;63.92
72066;BME280;59939;52.516;13.420;2022-09-13T16:22:07;99695.66;;;21.53;63.87
72066;BME280;59939;52.516;13.420;2022-09-13T16:25:14;99698.72;;;21.76;63.07
72066;BME280;59939;52.516;13.420;2022-09-13T16:28:18;99711.19;;;21.61;63.05
72066;BME280;59939;52.516;13.420;2022-09-13T16:31:24;99694.81;;;21.63;63.28
72066;BME280;59939;52.516;13.420;2022-09-13T16:34:35;99707.22;;;21.51;63.26
72066;BME280;59939;52.516;13.420;2022-09-13T16:37:43;99694.16;;;21.20;64.71
72066;BME280;59939;52.516;13.420;2022-09-13T16:40:47;99687.34;;;21.38;64.08
72066;BME280;59939;52.516;13.420;2022-09-13T16:43:53;99689.78;;;21.33;64.30
72066;BME280;59939;52.516;13.420;2022-09-13T16:47:01;99695.38;;;21.22;65.17
72066;BME280;59939;52.516;13.420;2022-09-13T16:50:06;99693.06;;;21.90;62.96
72066;BME280;59939;52.516;13.420;2022-09-13T16:53:12;99708.75;;;21.66;63.71
72066;BME280;59939;52.516;13.420;2022-09-13T16:56:19;99711.22;;;21.50;65.08
72066;BME280;59939;52.516;13.420;2022-09-13T16:59:27;99700.06;;;21.50;65.12
72066;BME280;59939;52.516;13.420;2022-09-13T17:02:30;99700.97;;;21.15;66.47
72066;BME280;59939;52.516;13.420;2022-09-13T17:05:35;99706.84;;;21.49;65.22
72066;BME280;59939;52.516;13.420;2022-09-13T17:08:57;99697.59;;;21.63;64.70
72066;BME280;59939;52.516;13.420;2022-09-13T17:12:05;99701.22;;;21.56;64.91
72066;BME280;59939;52.516;13.420;2022-09-13T17:15:10;99706.56;;;21.11;66.42
72066;BME280;59939;52.516;13.420;2022-09-13T17:18:14;99710.94;;;21.05;67.52
72066;BME280;59939;52.516;13.420;2022-09-13T17:21:20;99703.00;;;21.04;67.70
72066;BME280;59939;52.516;13.420;2022-09-13T17:24:26;99701.84;;;20.83;67.89
72066;BME280;59939;52.516;13.420;2022-09-13T17:27:32;99713.34;;;21.00;67.49
72066;BME280;59939;52.516;13.420;2022-09-13T17:30:45;99704.28;;;20.53;69.01
72066;BME280;59939;52.516;13.420;2022-09-13T17:33:52;99712.59;;;20.85;67.70
72066;BME280;59939;52.516;13.420;2022-09-13T17:36:57;99702.63;;;20.88;67.62
72066;BME280;59939;52.516;13.420;2022-09-13T17:40:02;99711.84;;;20.60;68.90
72066;BME280;59939;52.516;13.420;2022-09-13T17:43:07;99720.22;;;20.63;68.62
72066;BME280;59939;52.516;13.420;2022-09-13T17:46:22;99716.22;;;20.61;68.59
72066;BME280;59939;52.516;13.420;2022-09-13T17:49:34;99704.97;;;21.10;67.18
72066;BME280;59939;52.516;13.420;2022-09-13T17:52:38;99713.81;;;20.73;67.79
72066;BME280;59939;52.516;13.420;2022-09-13T17:55:46;99708.28;;;20.52;69.15
72066;BME280;59939;52.516;13.420;2022-09-13T17:58:50;99711.44;;;20.68;68.32
72066;BME280;59939;52.516;13.420;2022-09-13T18:01:54;99715.44;;;20.42;69.17
72066;BME280;59939;52.516;13.420;2022-09-13T18:05:00;99717.81;;;20.47;68.83
72066;BME280;59939;52.516;13.420;2022-09-13T18:08:11;99719.41;;;20.48;68.92
72066;BME280;59939;52.516;13.420;2022-09-13T18:11:16;99716.19;;;20.29;69.63
72066;BME280;59939;52.516;13.420;2022-09-13T18:14:23;99708.66;;;20.54;68.22
72066;BME280;59939;52.516;13.420;2022-09-13T18:17:50;99715.41;;;20.35;67.26
72066;BME280;59939;52.516;13.420;2022-09-13T18:20:57;99716.22;;;20.61;67.54
72066;BME280;59939;52.516;13.420;2022-09-13T18:24:13;99728.56;;;20.49;67.47
72066;BME280;59939;52.516;13.420;2022-09-13T18:27:20;99720.16;;;20.92;65.93
72066;BME280;59939;52.516;13.420;2022-09-13T18:30:32;99717.81;;;20.69;66.75
72066;BME280;59939;52.516;13.420;2022-09-13T18:33:36;99733.31;;;20.34;68.12
72066;BME280;59939;52.516;13.420;2022-09-13T18:36:40;99728.16;;;20.68;66.97